Flight Track Log - Related Links

Times and Time Zones

All times are in EDT time to prevent confusion due to time zone crossing. See the ASH3795 flight status page for this flight to view local times or setup timezone preferences in your user account.

Time Position Orientation Groundspeed Altitude Reporting Facility
EDT Latitude Longitude Course Direction KTS MPH feet Rate Location/Type
Fri 08:32:33 AM 38.9000 -77.4333 270° West 188 216 3,300  Level Potomac TRACON
Fri 08:33:27 AM 38.8333 -77.4333 180° South 212 244 5,300 2,263 Climbing Potomac TRACON
Fri 08:34:27 AM 38.7667 -77.4667 201° Southwest 282 325 7,600 2,678 Climbing Potomac TRACON
Fri 08:35:28 AM 38.6833 -77.4833 189° South 301 346 10,700 2,876 Climbing Potomac TRACON
Fri 08:36:28 AM 38.6000 -77.5167 197° South 303 349 13,400 2,327 Climbing Potomac TRACON
Fri 08:37:00 AM 38.3833 -77.5794 270° West  Level FlightAware Approximate
Fri 08:37:06 AM 38.5683 -77.5406 211° Southwest 306 352 14,500  Level Washington Center
Fri 08:38:06 AM 38.5022 -77.6158 222° Southwest 307 353 17,000 2,085 Climbing Washington Center
Fri 08:39:04 AM 38.4344 -77.6908 221° Southwest 318 366 18,600 1,866 Climbing Washington Center
Fri 08:40:05 AM 38.3661 -77.7683 222° Southwest 325 374 20,700 4,700 Climbing Washington Center
Fri 08:41:04 AM 38.2875 -77.8508 219° Southwest 335 386 28,000 1,815 Climbing Washington Center
Fri 08:42:04 AM 38.2192 -77.9306 223° Southwest 348 400 24,300 -950 Descending Washington Center
Fri 08:43:04 AM 38.1425 -78.0153 221° Southwest 359 413 26,100 1,250 Climbing Washington Center
Fri 08:44:04 AM 38.0636 -78.1053 222° Southwest 373 429 26,800 496 Climbing Washington Center
Fri 08:45:05 AM 37.9822 -78.2053 224° Southwest 388 447 27,100 590 Climbing Washington Center
Fri 08:46:06 AM 37.9025 -78.3183 228° Southwest 414 476 28,000 454 Climbing Washington Center
Fri 08:47:04 AM 37.8206 -78.4361 229° Southwest 436 502 28,000  Level Washington Center
Fri 08:48:05 AM 37.7297 -78.5694 229° Southwest 460 529 28,000  Level Washington Center
Fri 08:49:05 AM 37.6497 -78.6817 228° Southwest 450 518 28,000  Level Washington Center
Fri 08:50:04 AM 37.5672 -78.7989 228° Southwest 450 518 28,000  Level Washington Center
Fri 08:51:04 AM 37.4869 -78.9106 228° Southwest 450 518 28,000  Level Washington Center
Fri 08:52:05 AM 37.4133 -79.0119 228° Southwest 450 518 28,000  Level Washington Center
Fri 08:53:06 AM 37.3328 -79.1286 229° Southwest 450 518 28,000  Level Washington Center
Fri 08:54:06 AM 37.2481 -79.2394 226° Southwest 450 518 28,000  Level Washington Center
Fri 08:55:04 AM 37.1494 -79.3233 214° Southwest 440 506 28,000  Level Washington Center
Fri 08:56:06 AM 37.0489 -79.4069 214° Southwest 440 506 28,000  Level Washington Center
Fri 08:57:04 AM 36.9394 -79.4950 213° Southwest 440 506 28,000  Level Washington Center
Fri 08:58:04 AM 36.8386 -79.5808 214° Southwest 440 506 28,000  Level Washington Center
Fri 08:59:05 AM 36.7400 -79.6614 213° Southwest 435 501 28,000 -537 Level Washington Center
Fri 09:00:07 AM 36.6347 -79.7464 213° Southwest 435 501 26,900 -1,361 Descending Washington Center
Fri 09:01:04 AM 36.5422 -79.8242 214° Southwest 447 514 25,300 -1,983 Descending Washington Center
Fri 09:02:08 AM 36.4147 -79.9211 211° Southwest 452 520 22,900 -1,597 Descending Atlanta Center
Fri 09:03:08 AM 36.3092 -80.0067 213° Southwest 446 513 22,000 -650 Descending Atlanta Center
Fri 09:04:08 AM 36.2117 -80.0911 215° Southwest 446 513 21,600 -1,350 Descending Atlanta Center
Fri 09:05:08 AM 36.1164 -80.1731 215° Southwest 446 513 19,300 -2,200 Descending Atlanta Center
Fri 09:06:08 AM 36.0369 -80.2408 215° Southwest 417 480 17,200 -2,200 Descending Atlanta Center
Fri 09:07:08 AM 35.9497 -80.3169 215° Southwest 398 458 14,900 -2,424 Descending Atlanta Center
Fri 09:07:47 AM 35.8928 -80.3681 216° Southwest 353 406 13,200 -1,260 Descending Atlanta Center
Fri 09:08:48 AM 35.8197 -80.4328 216° Southwest 311 358 12,800 -1,033 Descending Atlanta Center
Fri 09:09:49 AM 35.7403 -80.4978 214° Southwest 311 358 11,100 -1,289 Descending Atlanta Center
Fri 09:10:49 AM 35.6708 -80.5569 215° Southwest 304 350 10,200 -545 Descending Atlanta Center
Fri 09:11:50 AM 35.6017 -80.6111 212° Southwest 299 344 10,000 -94 Descending Atlanta Center
Fri 09:12:57 AM 35.5219 -80.6783 214° Southwest 301 346 10,000  Level Atlanta Center
Fri 09:14:08 AM 35.4486 -80.7372 213° Southwest 306 352 10,000 -94 Level Atlanta Center
Fri 09:15:05 AM 35.3772 -80.7989 215° Southwest 302 348 9,800 -508 Descending Atlanta Center
Fri 09:16:06 AM 35.3097 -80.8575 215° Southwest 301 346 9,000 -375 Descending Atlanta Center
Fri 09:17:13 AM 35.2328 -80.8656 185° South 237 273 9,000  Level Atlanta Center
Fri 09:17:56 AM 35.1844 -80.8519 167° South 239 275 9,000 -692 Level Atlanta Center
Fri 09:18:57 AM 35.1153 -80.8344 168° South 251 289 7,800 -1,426 Descending Atlanta Center
Fri 09:19:58 AM 35.0483 -80.8319 178° South 240 276 6,100 -1,770 Descending Atlanta Center
Fri 09:20:59 AM 34.9972 -80.8669 209° Southwest 214 246 4,200 -1,279 Descending Atlanta Center
Fri 09:22:00 AM 35.0131 -80.9194 290° West 180 207 3,500 -563 Descending Atlanta Center
Fri 09:23:07 AM 35.0611 -80.9253 354° North 146 168 3,000 -448 Descending Atlanta Center

Login

Don't have an account? Register now (free) for customized features, flight alerts, and more!